createdAt,value
2023-04-24T00:01:59.484Z,10.70
2023-04-24T00:04:27.185Z,10.80
2023-04-24T00:06:58.088Z,10.80
2023-04-24T00:09:25.372Z,10.80
2023-04-24T00:11:52.580Z,10.80
2023-04-24T00:14:19.455Z,10.80
2023-04-24T00:16:49.107Z,10.70
2023-04-24T00:19:22.335Z,10.80
2023-04-24T00:21:52.568Z,10.80
2023-04-24T00:24:19.631Z,10.70
2023-04-24T00:26:46.528Z,10.80
2023-04-24T00:29:14.943Z,10.70
2023-04-24T00:31:41.783Z,10.70
2023-04-24T00:34:08.803Z,10.70
2023-04-24T00:36:36.157Z,10.70
2023-04-24T00:39:03.366Z,10.70
2023-04-24T00:41:32.617Z,10.80
2023-04-24T00:43:59.686Z,10.80
2023-04-24T00:46:26.536Z,10.80
2023-04-24T00:48:53.431Z,10.80
2023-04-24T00:51:21.174Z,10.80
2023-04-24T00:53:48.059Z,10.80
2023-04-24T00:56:15.246Z,10.80
2023-04-24T00:58:42.917Z,10.80
2023-04-24T01:01:12.733Z,10.80
2023-04-24T01:03:40.012Z,10.90
2023-04-24T01:06:07.918Z,10.80
2023-04-24T01:08:36.929Z,10.80
2023-04-24T01:11:04.925Z,10.80
2023-04-24T01:13:33.457Z,10.80
2023-04-24T01:16:01.527Z,10.80
2023-04-24T01:18:29.259Z,10.90
2023-04-24T01:21:00.112Z,10.90
2023-04-24T01:23:27.782Z,10.90
2023-04-24T01:25:54.909Z,10.90
2023-04-24T01:28:22.442Z,10.80
2023-04-24T01:30:49.616Z,10.80
2023-04-24T01:33:17.165Z,10.90
2023-04-24T01:35:44.571Z,10.90
2023-04-24T01:38:11.818Z,10.90
2023-04-24T01:40:39.151Z,10.90
2023-04-24T01:43:06.167Z,10.90
2023-04-24T01:45:33.077Z,10.90
2023-04-24T01:48:00.065Z,10.80
2023-04-24T01:50:27.154Z,10.80
2023-04-24T01:52:53.986Z,10.90
2023-04-24T01:55:20.908Z,10.90
2023-04-24T01:57:48.149Z,10.80
2023-04-24T02:00:17.856Z,10.80
2023-04-24T02:02:48.022Z,10.80
2023-04-24T02:05:15.324Z,10.80
2023-04-24T02:07:42.219Z,10.80
2023-04-24T02:10:09.576Z,10.80
2023-04-24T02:12:36.508Z,10.80
2023-04-24T02:15:03.884Z,10.80
2023-04-24T02:17:31.801Z,10.80
2023-04-24T02:19:58.639Z,10.80
2023-04-24T02:22:25.384Z,10.80
2023-04-24T02:24:52.128Z,10.80
2023-04-24T02:27:18.941Z,10.80
2023-04-24T02:29:46.119Z,10.70
2023-04-24T02:32:13.236Z,10.70
2023-04-24T02:34:40.332Z,10.70
2023-04-24T02:37:07.295Z,10.70
2023-04-24T02:39:34.129Z,10.70
2023-04-24T02:42:01.268Z,10.60
2023-04-24T02:44:28.125Z,10.60
2023-04-24T02:46:54.910Z,10.60
2023-04-24T02:49:24.474Z,10.50
2023-04-24T02:51:51.363Z,10.50
2023-04-24T02:54:18.236Z,10.50
2023-04-24T02:56:44.913Z,10.50
2023-04-24T02:59:11.848Z,10.50
2023-04-24T03:01:38.778Z,10.50
2023-04-24T03:04:06.339Z,10.40
2023-04-24T03:06:34.025Z,10.40
2023-04-24T03:09:00.868Z,10.40
2023-04-24T03:11:27.750Z,10.40
2023-04-24T03:13:54.521Z,10.40
2023-04-24T03:16:21.465Z,10.40
2023-04-24T03:18:48.346Z,10.40
2023-04-24T03:21:15.237Z,10.40
2023-04-24T03:23:42.069Z,10.30
2023-04-24T03:26:08.834Z,10.30
2023-04-24T03:28:35.790Z,10.30
2023-04-24T03:31:04.191Z,10.20
2023-04-24T03:33:34.012Z,10.30
2023-04-24T03:36:00.804Z,10.20
2023-04-24T03:38:27.502Z,10.20
2023-04-24T03:40:54.465Z,10.20
2023-04-24T03:43:21.271Z,10.20
2023-04-24T03:45:48.318Z,10.10
2023-04-24T03:48:15.082Z,10.10
2023-04-24T03:50:41.837Z,10.10
2023-04-24T03:53:09.232Z,10.10
2023-04-24T03:55:36.188Z,10.10
2023-04-24T03:58:02.980Z,10.10
2023-04-24T04:00:32.654Z,10.10
2023-04-24T04:02:59.490Z,10.10
2023-04-24T04:05:26.461Z,10.10
2023-04-24T04:07:53.184Z,10.10
2023-04-24T04:10:20.345Z,10.00
2023-04-24T04:12:47.129Z,10.00
2023-04-24T04:15:16.970Z,10.00
2023-04-24T04:17:47.235Z,10.00
2023-04-24T04:20:17.223Z,10.00
2023-04-24T04:22:44.712Z,10.00
2023-04-24T04:25:12.740Z,10.10
2023-04-24T04:27:39.922Z,10.10
2023-04-24T04:30:07.418Z,10.00
2023-04-24T04:32:34.854Z,10.10
2023-04-24T04:35:04.053Z,10.10
2023-04-24T04:37:32.344Z,10.10
2023-04-24T04:39:59.627Z,10.10
2023-04-24T04:42:28.007Z,10.10
2023-04-24T04:44:55.029Z,10.10
2023-04-24T04:47:25.925Z,10.10
2023-04-24T04:49:52.930Z,10.10
2023-04-24T04:52:20.368Z,10.10
2023-04-24T04:54:47.717Z,10.10
2023-04-24T04:57:17.663Z,10.10
2023-04-24T04:59:44.890Z,10.10
2023-04-24T05:02:12.134Z,10.10
2023-04-24T05:04:39.196Z,10.10
2023-04-24T05:07:06.659Z,10.10
2023-04-24T05:09:39.400Z,10.10
2023-04-24T05:12:06.293Z,10.10
2023-04-24T05:14:33.157Z,10.10
2023-04-24T05:17:01.284Z,10.10
2023-04-24T05:19:28.042Z,10.20
2023-04-24T05:21:57.602Z,10.20
2023-04-24T05:24:24.516Z,10.10
2023-04-24T05:26:51.426Z,10.10
2023-04-24T05:29:22.539Z,10.10
2023-04-24T05:31:49.488Z,10.20
2023-04-24T05:34:17.762Z,10.10
2023-04-24T05:36:47.616Z,10.10
2023-04-24T05:39:14.753Z,10.10
2023-04-24T05:41:41.853Z,10.10
2023-04-24T05:44:08.642Z,10.10
2023-04-24T05:46:35.765Z,10.00
2023-04-24T05:49:06.014Z,10.00
2023-04-24T05:51:32.773Z,10.00
2023-04-24T05:53:59.735Z,10.00
2023-04-24T05:56:26.539Z,10.00
2023-04-24T05:58:55.204Z,10.00
2023-04-24T06:01:22.058Z,10.00
2023-04-24T06:03:49.835Z,10.00
2023-04-24T06:06:17.067Z,10.10
2023-04-24T06:08:45.198Z,10.10
2023-04-24T06:11:12.013Z,10.00
2023-04-24T06:13:38.865Z,10.00
2023-04-24T06:16:06.343Z,10.00
2023-04-24T06:18:33.171Z,10.00
2023-04-24T06:20:59.981Z,10.00
2023-04-24T06:23:27.210Z,10.00
2023-04-24T06:25:54.203Z,9.90
2023-04-24T06:28:20.934Z,9.90
2023-04-24T06:30:47.920Z,9.90
2023-04-24T06:33:21.711Z,9.90
2023-04-24T06:35:49.275Z,9.90
2023-04-24T06:38:18.839Z,9.90
2023-04-24T06:40:46.241Z,9.90
2023-04-24T06:43:13.434Z,9.90
2023-04-24T06:45:41.019Z,9.90
2023-04-24T06:48:08.067Z,9.90
2023-04-24T06:50:35.010Z,9.90
2023-04-24T06:53:01.800Z,9.90
2023-04-24T06:55:28.593Z,9.90
2023-04-24T06:57:55.589Z,9.90
2023-04-24T07:00:25.511Z,9.90
2023-04-24T07:02:52.665Z,9.90
2023-04-24T07:05:21.288Z,9.90
2023-04-24T07:07:48.873Z,9.80
2023-04-24T07:10:15.722Z,9.80
2023-04-24T07:12:43.024Z,9.80
2023-04-24T07:15:10.295Z,9.80
2023-04-24T07:17:37.233Z,9.70
2023-04-24T07:20:05.130Z,9.70
2023-04-24T07:22:31.892Z,9.70
2023-04-24T07:24:58.713Z,9.60
2023-04-24T07:27:26.717Z,9.70
2023-04-24T07:29:53.608Z,9.60
2023-04-24T07:32:20.516Z,9.60
2023-04-24T07:34:47.341Z,9.70
2023-04-24T07:37:14.085Z,9.60
2023-04-24T07:39:41.234Z,9.60
2023-04-24T07:42:08.331Z,9.70
2023-04-24T07:44:37.642Z,9.70
2023-04-24T07:47:07.230Z,9.70
2023-04-24T07:49:35.815Z,9.60
2023-04-24T07:52:03.586Z,9.60
2023-04-24T07:54:30.821Z,9.60
2023-04-24T07:56:57.731Z,9.70
2023-04-24T07:59:24.620Z,9.70
2023-04-24T08:01:51.360Z,9.70
2023-04-24T08:04:19.077Z,9.70
2023-04-24T08:06:45.995Z,9.70
2023-04-24T08:09:15.597Z,9.70
2023-04-24T08:11:42.471Z,9.70
2023-04-24T08:14:14.186Z,9.70
2023-04-24T08:16:41.467Z,9.70
2023-04-24T08:19:11.745Z,9.60
2023-04-24T08:21:38.549Z,9.60
2023-04-24T08:24:09.320Z,9.60
2023-04-24T08:26:36.128Z,9.60
2023-04-24T08:29:03.006Z,9.60
2023-04-24T08:31:30.153Z,9.60
2023-04-24T08:33:57.087Z,9.60
2023-04-24T08:36:28.228Z,9.60
2023-04-24T08:39:00.338Z,9.60
2023-04-24T08:41:31.711Z,9.60
2023-04-24T08:44:03.445Z,9.60
2023-04-24T08:46:32.012Z,9.70
2023-04-24T08:48:59.429Z,9.70
2023-04-24T08:51:27.541Z,9.80
2023-04-24T08:53:55.993Z,9.80
2023-04-24T08:56:24.490Z,9.90
2023-04-24T08:58:58.738Z,10.00
2023-04-24T09:01:26.502Z,10.00
2023-04-24T09:03:55.442Z,10.00
2023-04-24T09:06:24.376Z,10.00
2023-04-24T09:08:52.133Z,10.00
2023-04-24T09:11:19.245Z,10.00
2023-04-24T09:13:46.691Z,10.10
2023-04-24T09:16:15.404Z,10.10
2023-04-24T09:18:42.256Z,10.10
2023-04-24T09:21:12.810Z,10.20
2023-04-24T09:23:42.599Z,10.20
2023-04-24T09:26:11.567Z,10.20
2023-04-24T09:28:40.783Z,10.30
2023-04-24T09:31:10.568Z,10.30
2023-04-24T09:33:37.963Z,10.20
2023-04-24T09:36:07.653Z,10.20
2023-04-24T09:38:39.081Z,10.30
2023-04-24T09:41:08.453Z,10.40
2023-04-24T09:43:36.152Z,10.40
2023-04-24T09:46:08.362Z,10.50
2023-04-24T09:48:45.379Z,10.50
2023-04-24T09:51:13.938Z,10.50
2023-04-24T09:53:47.023Z,10.40
2023-04-24T09:56:14.098Z,10.40
2023-04-24T09:58:41.303Z,10.40
2023-04-24T10:01:08.396Z,10.40
2023-04-24T10:03:35.948Z,10.40
2023-04-24T10:06:09.530Z,10.40
2023-04-24T10:08:38.449Z,10.40
2023-04-24T10:11:06.183Z,10.40
2023-04-24T10:13:33.938Z,10.50
2023-04-24T10:16:04.805Z,10.50
2023-04-24T10:18:31.881Z,10.50
2023-04-24T10:21:01.160Z,10.50
2023-04-24T10:23:29.169Z,10.60
2023-04-24T10:25:56.642Z,10.60
2023-04-24T10:28:25.481Z,10.50
2023-04-24T10:30:56.100Z,10.50
2023-04-24T10:33:24.015Z,10.40
2023-04-24T10:35:52.763Z,10.40
2023-04-24T10:38:27.871Z,10.40
2023-04-24T10:41:10.571Z,10.60
2023-04-24T10:43:37.645Z,10.70
2023-04-24T10:46:07.347Z,10.90
2023-04-24T10:48:34.981Z,11.00
2023-04-24T10:51:02.709Z,11.20
2023-04-24T10:53:30.979Z,11.20
2023-04-24T10:56:06.805Z,11.30
2023-04-24T10:58:52.977Z,11.50
2023-04-24T11:01:28.028Z,11.60
2023-04-24T11:04:00.109Z,11.70
2023-04-24T11:06:44.873Z,11.80
2023-04-24T11:09:16.507Z,11.90
2023-04-24T11:11:48.061Z,12.00
2023-04-24T11:14:22.822Z,12.00
2023-04-24T11:16:54.608Z,12.00
2023-04-24T11:19:29.647Z,11.90
2023-04-24T11:22:04.505Z,11.80
2023-04-24T11:24:43.311Z,11.70
2023-04-24T11:27:20.967Z,11.60
2023-04-24T11:30:01.880Z,11.50
2023-04-24T11:32:41.929Z,11.40
2023-04-24T11:35:25.905Z,11.40
2023-04-24T11:40:29.250Z,11.20
2023-04-24T11:43:00.944Z,11.10
2023-04-24T11:45:31.000Z,11.10
2023-04-24T11:47:58.103Z,11.20
2023-04-24T11:50:27.691Z,11.20
2023-04-24T11:52:54.922Z,11.30
2023-04-24T11:55:21.609Z,11.40
2023-04-24T11:57:50.835Z,11.50
2023-04-24T12:00:20.175Z,11.60
2023-04-24T12:02:51.627Z,11.80
2023-04-24T12:05:35.894Z,11.90
2023-04-24T12:08:03.365Z,11.90
2023-04-24T12:10:31.907Z,11.90
2023-04-24T12:12:59.810Z,11.90
2023-04-24T12:15:27.487Z,11.90
2023-04-24T12:17:55.674Z,11.90
2023-04-24T12:20:30.380Z,11.90
2023-04-24T12:22:58.764Z,11.90
2023-04-24T12:25:28.004Z,11.80
2023-04-24T12:27:57.041Z,11.70
2023-04-24T12:30:31.315Z,11.60
2023-04-24T12:33:01.914Z,11.50
2023-04-24T12:35:30.929Z,11.60
2023-04-24T12:38:09.758Z,11.70
2023-04-24T12:40:36.863Z,11.60
2023-04-24T12:43:13.948Z,11.60
2023-04-24T12:45:40.787Z,11.60
2023-04-24T12:48:07.506Z,11.50
2023-04-24T12:50:34.411Z,11.40
2023-04-24T12:53:01.449Z,11.40
2023-04-24T12:55:28.216Z,11.40
2023-04-24T12:57:56.372Z,11.50
2023-04-24T13:00:23.276Z,11.60
2023-04-24T13:02:50.375Z,11.90
2023-04-24T13:05:17.358Z,12.20
2023-04-24T13:07:44.164Z,12.40
2023-04-24T13:10:14.362Z,12.50
2023-04-24T13:12:41.676Z,12.60
2023-04-24T13:15:08.757Z,12.80
2023-04-24T13:17:35.697Z,13.00
2023-04-24T13:20:02.466Z,13.20
2023-04-24T13:22:29.218Z,13.30
2023-04-24T13:24:58.752Z,13.40
2023-04-24T13:27:25.645Z,13.30
2023-04-24T13:29:52.455Z,13.10
2023-04-24T13:32:19.432Z,13.00
2023-04-24T13:34:49.433Z,12.80
2023-04-24T13:37:16.173Z,12.60
2023-04-24T13:39:43.025Z,12.40
2023-04-24T13:42:13.708Z,12.30
2023-04-24T13:44:41.370Z,12.20
2023-04-24T13:47:08.082Z,12.10
2023-04-24T13:49:35.213Z,12.00
2023-04-24T13:52:02.836Z,11.90
2023-04-24T13:54:32.659Z,11.90
2023-04-24T13:56:59.831Z,11.90
2023-04-24T13:59:26.944Z,11.90
2023-04-24T14:01:53.802Z,12.00
2023-04-24T14:04:21.013Z,12.10
2023-04-24T14:06:47.907Z,12.10
2023-04-24T14:09:17.596Z,12.10
2023-04-24T14:11:44.477Z,12.00
2023-04-24T14:14:11.825Z,12.00
2023-04-24T14:16:38.636Z,11.90
2023-04-24T14:19:06.524Z,11.80
2023-04-24T14:21:33.840Z,11.80
2023-04-24T14:24:00.693Z,11.70
2023-04-24T14:26:27.505Z,11.80
2023-04-24T14:29:01.132Z,11.90
2023-04-24T14:31:34.325Z,11.90
2023-04-24T14:34:03.752Z,12.00
2023-04-24T14:36:31.619Z,12.00
2023-04-24T14:38:58.507Z,11.90
2023-04-24T14:41:25.309Z,11.80
2023-04-24T14:43:52.190Z,11.70
2023-04-24T14:46:19.009Z,11.50
2023-04-24T14:48:46.094Z,11.30
2023-04-24T14:51:13.446Z,11.00
2023-04-24T14:53:40.163Z,10.80
2023-04-24T14:56:07.277Z,10.70
2023-04-24T14:58:34.101Z,10.60
2023-04-24T15:01:01.136Z,10.60
2023-04-24T15:03:28.129Z,10.70
2023-04-24T15:05:55.283Z,10.80
2023-04-24T15:08:22.209Z,11.00
2023-04-24T15:10:49.390Z,11.10
2023-04-24T15:13:16.428Z,11.30
2023-04-24T15:15:43.461Z,11.40
2023-04-24T15:18:13.494Z,11.50
2023-04-24T15:20:40.450Z,11.60
2023-04-24T15:23:08.316Z,11.80
2023-04-24T15:25:35.280Z,12.00
2023-04-24T15:28:02.256Z,12.10
2023-04-24T15:30:30.276Z,12.30
2023-04-24T15:32:57.277Z,12.50
2023-04-24T15:35:24.371Z,12.50
2023-04-24T15:37:51.236Z,12.60
2023-04-24T15:40:21.490Z,12.60
2023-04-24T15:42:48.851Z,12.60
2023-04-24T15:45:16.113Z,12.60
2023-04-24T15:47:42.917Z,12.60
2023-04-24T15:50:12.122Z,12.60
2023-04-24T15:52:43.425Z,12.50
2023-04-24T15:55:10.673Z,12.50
2023-04-24T15:57:37.628Z,12.60
2023-04-24T16:00:09.835Z,12.60
2023-04-24T16:02:36.928Z,12.70
2023-04-24T16:05:04.221Z,12.70
2023-04-24T16:07:32.511Z,12.80
2023-04-24T16:09:59.351Z,12.80
2023-04-24T16:12:29.166Z,12.70
2023-04-24T16:14:56.128Z,12.70
2023-04-24T16:17:23.135Z,12.60
2023-04-24T16:19:49.791Z,12.50
2023-04-24T16:22:16.656Z,12.60
2023-04-24T16:24:43.827Z,12.80
2023-04-24T16:27:10.981Z,12.90
2023-04-24T16:29:37.961Z,13.00
2023-04-24T16:32:13.300Z,13.00
2023-04-24T16:34:40.717Z,12.90
2023-04-24T16:37:13.567Z,12.80
2023-04-24T16:39:49.591Z,12.70
2023-04-24T16:42:37.114Z,12.70
2023-04-24T16:45:04.395Z,12.60
2023-04-24T16:47:31.542Z,12.60
2023-04-24T16:49:58.451Z,12.50
2023-04-24T16:52:25.360Z,12.40
2023-04-24T16:54:52.116Z,12.40
2023-04-24T16:57:18.922Z,12.40
2023-04-24T16:59:45.927Z,12.30
2023-04-24T17:02:15.751Z,12.20
2023-04-24T17:04:42.540Z,12.20
2023-04-24T17:07:09.397Z,12.10
2023-04-24T17:09:36.522Z,12.10
2023-04-24T17:12:03.411Z,12.00
2023-04-24T17:14:30.398Z,11.90
2023-04-24T17:16:57.303Z,11.90
2023-04-24T17:19:27.589Z,11.80
2023-04-24T17:21:54.469Z,11.70
2023-04-24T17:24:21.258Z,11.70
2023-04-24T17:26:51.991Z,11.60
2023-04-24T17:29:24.430Z,11.50
2023-04-24T17:31:54.170Z,11.50
2023-04-24T17:34:21.036Z,11.40
2023-04-24T17:36:47.820Z,11.40
2023-04-24T17:39:14.609Z,11.40
2023-04-24T17:41:41.427Z,11.40
2023-04-24T17:44:08.471Z,11.30
2023-04-24T17:46:35.719Z,11.30
2023-04-24T17:49:02.693Z,11.30
2023-04-24T17:51:29.544Z,11.30
2023-04-24T17:53:56.332Z,11.30
2023-04-24T17:56:24.932Z,11.30
2023-04-24T17:58:52.391Z,11.20
2023-04-24T18:01:26.718Z,11.20
2023-04-24T18:03:53.842Z,11.10
2023-04-24T18:06:20.831Z,11.00
2023-04-24T18:08:47.674Z,11.00
2023-04-24T18:11:17.433Z,10.90
2023-04-24T18:13:46.100Z,10.80
2023-04-24T18:16:12.894Z,10.70
2023-04-24T18:18:42.509Z,10.60
2023-04-24T18:21:09.231Z,10.60
2023-04-24T18:23:36.054Z,10.50
2023-04-24T18:26:07.177Z,10.40
2023-04-24T18:28:34.735Z,10.40
2023-04-24T18:31:04.647Z,10.30
2023-04-24T18:33:34.567Z,10.30
2023-04-24T18:36:03.574Z,10.20
2023-04-24T18:38:30.574Z,10.20
2023-04-24T18:40:59.908Z,10.10
2023-04-24T18:43:26.565Z,10.00
2023-04-24T18:45:53.550Z,10.00
2023-04-24T18:48:20.518Z,9.90
2023-04-24T18:50:47.286Z,9.80
2023-04-24T18:53:16.923Z,9.80
2023-04-24T18:55:43.977Z,9.70
2023-04-24T18:58:11.039Z,9.60
2023-04-24T19:00:38.658Z,9.60
2023-04-24T19:03:06.053Z,9.60
2023-04-24T19:05:32.969Z,9.50
2023-04-24T19:07:59.875Z,9.50
2023-04-24T19:10:27.706Z,9.40
2023-04-24T19:12:56.790Z,9.40
2023-04-24T19:15:24.979Z,9.40
2023-04-24T19:17:52.045Z,9.30
2023-04-24T19:20:19.498Z,9.20
2023-04-24T19:22:47.516Z,9.20
2023-04-24T19:25:14.467Z,9.20
2023-04-24T19:27:41.380Z,9.10
2023-04-24T19:30:08.593Z,9.10
2023-04-24T19:32:35.537Z,9.00
2023-04-24T19:35:05.117Z,9.00
2023-04-24T19:37:34.308Z,9.00
2023-04-24T19:40:01.760Z,8.90
2023-04-24T19:42:42.625Z,8.90
2023-04-24T19:45:12.418Z,8.90
2023-04-24T19:47:39.752Z,8.80
2023-04-24T19:50:07.332Z,8.80
2023-04-24T19:52:34.568Z,8.80
2023-04-24T19:55:01.380Z,8.70
2023-04-24T19:57:28.080Z,8.70
2023-04-24T19:59:54.994Z,8.70
2023-04-24T20:02:29.122Z,8.70
2023-04-24T20:04:56.205Z,8.70
2023-04-24T20:07:23.082Z,8.60
2023-04-24T20:09:49.808Z,8.60
2023-04-24T20:12:16.686Z,8.50
2023-04-24T20:14:43.578Z,8.50
2023-04-24T20:17:10.497Z,8.50
2023-04-24T20:19:37.759Z,8.50
2023-04-24T20:22:04.814Z,8.50
2023-04-24T20:24:31.607Z,8.40
2023-04-24T20:26:58.454Z,8.40
2023-04-24T20:29:28.221Z,8.40
2023-04-24T20:31:55.215Z,8.40
2023-04-24T20:34:22.483Z,8.40
2023-04-24T20:36:49.872Z,8.40
2023-04-24T20:39:19.921Z,8.30
2023-04-24T20:41:47.649Z,8.30
2023-04-24T20:44:16.280Z,8.30
2023-04-24T20:46:43.091Z,8.30
2023-04-24T20:49:10.137Z,8.30
2023-04-24T20:51:37.069Z,8.30
2023-04-24T20:54:07.098Z,8.20
2023-04-24T20:56:33.817Z,8.20
2023-04-24T20:59:00.953Z,8.20
2023-04-24T21:01:27.753Z,8.20
2023-04-24T21:03:54.673Z,8.10
2023-04-24T21:06:21.891Z,8.10
2023-04-24T21:08:48.667Z,8.10
2023-04-24T21:11:15.431Z,8.10
2023-04-24T21:13:42.207Z,8.10
2023-04-24T21:16:09.007Z,8.00
2023-04-24T21:18:41.123Z,8.00
2023-04-24T21:21:09.395Z,8.00
2023-04-24T21:23:36.547Z,8.00
2023-04-24T21:26:04.281Z,7.90
2023-04-24T21:28:31.510Z,7.90
2023-04-24T21:30:58.369Z,7.90
2023-04-24T21:33:25.255Z,7.90
2023-04-24T21:35:52.072Z,7.90
2023-04-24T21:38:28.563Z,7.80
2023-04-24T21:40:55.315Z,7.80
2023-04-24T21:43:28.066Z,7.80
2023-04-24T21:46:04.297Z,7.80
2023-04-24T21:48:31.172Z,7.70
2023-04-24T21:50:58.076Z,7.70
2023-04-24T21:53:24.921Z,7.70
2023-04-24T21:55:51.851Z,7.70
2023-04-24T21:58:18.683Z,7.70
2023-04-24T22:00:45.659Z,7.60
2023-04-24T22:03:12.636Z,7.60
2023-04-24T22:05:39.317Z,7.60
2023-04-24T22:08:07.463Z,7.50
2023-04-24T22:10:34.346Z,7.50
2023-04-24T22:13:01.106Z,7.50
2023-04-24T22:15:28.819Z,7.50
2023-04-24T22:17:57.562Z,7.50
2023-04-24T22:20:25.895Z,7.40
2023-04-24T22:22:53.182Z,7.40
2023-04-24T22:25:19.959Z,7.40
2023-04-24T22:27:46.853Z,7.40
2023-04-24T22:30:13.917Z,7.40
2023-04-24T22:32:40.796Z,7.40
2023-04-24T22:35:10.842Z,7.40
2023-04-24T22:37:37.670Z,7.40
2023-04-24T22:40:05.596Z,7.40
2023-04-24T22:42:32.413Z,7.40
2023-04-24T22:45:01.774Z,7.40
2023-04-24T22:47:29.019Z,7.40
2023-04-24T22:49:57.517Z,7.40
2023-04-24T22:52:24.377Z,7.40
2023-04-24T22:54:52.137Z,7.50
2023-04-24T22:57:19.017Z,7.40
2023-04-24T22:59:45.940Z,7.40
2023-04-24T23:02:12.873Z,7.50
2023-04-24T23:04:39.758Z,7.50
2023-04-24T23:07:06.611Z,7.50
2023-04-24T23:09:33.720Z,7.50
2023-04-24T23:12:03.563Z,7.40
2023-04-24T23:14:30.508Z,7.40
2023-04-24T23:16:57.521Z,7.40
2023-04-24T23:19:24.402Z,7.40
2023-04-24T23:21:51.400Z,7.40
2023-04-24T23:24:18.102Z,7.30
2023-04-24T23:26:44.992Z,7.30
2023-04-24T23:29:11.713Z,7.30
2023-04-24T23:31:41.190Z,7.30
2023-04-24T23:34:08.089Z,7.20
2023-04-24T23:36:34.877Z,7.20
2023-04-24T23:39:01.798Z,7.20
2023-04-24T23:41:28.791Z,7.20
2023-04-24T23:43:55.692Z,7.10
2023-04-24T23:46:25.247Z,7.10
2023-04-24T23:48:52.114Z,7.10
2023-04-24T23:51:19.174Z,7.10
2023-04-24T23:53:46.447Z,7.00
2023-04-24T23:56:16.535Z,7.00
2023-04-24T23:58:43.374Z,7.00
